Terminal Aerodrome Forecast
Issued by NWS

Home | Current Version | Previous Version | Text Only | Print | Product List | Glossary On
Versions: 1 2 3 4 5 6 7 8 9 10 11 12 13 14 15 16 17 18 19 20 21 22 23 24 25 26 27 28 29 30 31 32 33 34
000
FTPA31 PHFO 252300
TAFITO
TAF
PHTO 252337Z 2600/2624 13012G19KT P6SM VCSH SCT025 BKN050
     FM260400 13008KT P6SM VCSH SCT025 BKN040
     FM260600 21006KT P6SM VCSH SCT025 BKN035
     FM262000 11011KT P6SM VCSH SCT025 BKN035=

USA.gov is the U.S. government's official web portal to all federal, state and local government web resources and services.